Terminal Aerodrome Forecast
Issued by NWS

Home | Current Version | Previous Version | Text Only | Print | Product List | Glossary On
Versions: 1 2 3 4 5 6 7 8 9 10 11 12 13 14 15 16 17 18 19 20 21 22 23 24 25 26 27 28 29 30 31 32 33 34 35 36 37
781
FTUS43 KDVN 202346
TAFCID
TAF
KCID 202346Z 2100/2124 09005KT 1/2SM FG OVC003
      TEMPO 2100/2104 1/4SM -DZ FG OVC001
     FM211000 12006KT 1SM BR OVC002
     FM211500 15007KT 3SM BR OVC004
     FM212100 20008KT 5SM HZ BKN012=

USA.gov is the U.S. government's official web portal to all federal, state and local government web resources and services.